Haydenville, Ohio
Current Conditions -  °F | °C
As of 10:15 PM on Saturday 22 Nov 2014 (Local Time) from KUNI Reporting Station
Broken Clouds Broken Clouds  
Wind Chill: 48°   Ceiling: 10000
Heat Index: 49°   Visibility: 10mi
Dew Point: 27°   Wind: 5mph
Humidity: 42%   Direction: 180°S
Pressure: 30.11"   Gusts: NA
Location:  39.48°N, 82.33°W
Report Text: KUNI 230315Z AUTO 18004KT 10SM BKN100 10/M03 A3011 RMK AO2 T00961029
Loading
Personal Weather Stations






























Interactive Weather Map New forecast layout! Learn more

10-Day Weather Forecast

Advertisements
Track Severe Weather on mobile